createdAt,value
2019-03-20T00:00:26.868Z,36.87
2019-03-20T00:02:58.490Z,37.77
2019-03-20T00:05:31.513Z,41.53
2019-03-20T00:08:02.926Z,40.60
2019-03-20T00:10:34.769Z,38.23
2019-03-20T00:13:06.244Z,39.23
2019-03-20T00:15:37.767Z,37.23
2019-03-20T00:18:09.394Z,33.53
2019-03-20T00:20:43.833Z,31.00
2019-03-20T00:23:16.390Z,34.10
2019-03-20T00:25:49.608Z,34.70
2019-03-20T00:28:21.266Z,32.60
2019-03-20T00:30:53.144Z,33.37
2019-03-20T00:33:29.357Z,27.70
2019-03-20T00:36:01.130Z,29.30
2019-03-20T00:38:32.614Z,30.43
2019-03-20T00:41:04.172Z,29.17
2019-03-20T00:43:35.661Z,27.13
2019-03-20T00:46:07.131Z,29.07
2019-03-20T00:48:38.648Z,28.77
2019-03-20T00:51:10.130Z,31.37
2019-03-20T00:53:44.550Z,30.50
2019-03-20T00:56:18.486Z,34.10
2019-03-20T00:58:53.002Z,35.80
2019-03-20T01:01:25.457Z,29.57
2019-03-20T01:03:58.697Z,33.03
2019-03-20T01:06:30.217Z,35.40
2019-03-20T01:09:01.645Z,34.97
2019-03-20T01:11:34.687Z,36.97
2019-03-20T01:14:06.192Z,32.73
2019-03-20T01:16:37.759Z,32.13
2019-03-20T01:19:12.549Z,31.87
2019-03-20T01:21:46.459Z,29.37
2019-03-20T01:24:19.694Z,28.03
2019-03-20T01:26:52.675Z,30.00
2019-03-20T01:29:25.021Z,26.37
2019-03-20T01:31:56.445Z,30.17
2019-03-20T01:34:27.995Z,27.20
2019-03-20T01:36:59.381Z,25.90
2019-03-20T01:39:30.900Z,27.70
2019-03-20T01:42:02.365Z,21.90
2019-03-20T01:44:35.320Z,23.53
2019-03-20T01:47:06.974Z,24.77
2019-03-20T01:49:38.541Z,24.90
2019-03-20T01:52:10.211Z,22.87
2019-03-20T01:54:41.726Z,23.07
2019-03-20T01:57:13.246Z,22.60
2019-03-20T01:59:44.738Z,24.40
2019-03-20T02:02:16.204Z,27.10
2019-03-20T02:04:47.586Z,24.93
2019-03-20T02:07:21.088Z,24.77
2019-03-20T02:09:52.542Z,27.30
2019-03-20T02:12:23.939Z,26.60
2019-03-20T02:14:57.983Z,26.50
2019-03-20T02:17:28.693Z,27.10
2019-03-20T02:20:00.750Z,30.57
2019-03-20T02:22:32.477Z,28.40
2019-03-20T02:25:10.370Z,28.17
2019-03-20T02:27:41.851Z,24.40
2019-03-20T02:30:15.972Z,32.70
2019-03-20T02:32:50.504Z,26.50
2019-03-20T02:35:21.971Z,26.77
2019-03-20T02:37:53.497Z,26.70
2019-03-20T02:40:25.000Z,25.10
2019-03-20T02:42:56.360Z,21.87
2019-03-20T02:45:27.786Z,25.73
2019-03-20T02:48:04.891Z,24.70
2019-03-20T02:50:36.484Z,23.13
2019-03-20T02:53:07.909Z,21.17
2019-03-20T02:55:42.446Z,19.17
2019-03-20T02:58:13.926Z,19.57
2019-03-20T03:00:45.379Z,20.47
2019-03-20T03:03:16.821Z,21.03
2019-03-20T03:05:50.610Z,21.77
2019-03-20T03:08:23.815Z,21.60
2019-03-20T03:10:56.894Z,20.83
2019-03-20T03:13:28.727Z,19.60
2019-03-20T03:16:00.153Z,18.93
2019-03-20T03:18:33.934Z,19.17
2019-03-20T03:21:06.899Z,18.17
2019-03-20T03:23:41.374Z,22.13
2019-03-20T03:26:13.070Z,19.87
2019-03-20T03:28:44.554Z,18.37
2019-03-20T03:31:16.006Z,21.90
2019-03-20T03:33:47.441Z,22.50
2019-03-20T03:36:21.538Z,23.90
2019-03-20T03:38:51.983Z,24.47
2019-03-20T03:41:23.476Z,24.43
2019-03-20T03:43:54.899Z,25.23
2019-03-20T03:46:32.655Z,25.37
2019-03-20T03:49:04.119Z,26.23
2019-03-20T03:51:35.541Z,27.90
2019-03-20T03:54:06.961Z,28.13
2019-03-20T03:56:40.659Z,30.47
2019-03-20T03:59:12.090Z,26.97
2019-03-20T04:01:43.581Z,24.90
2019-03-20T04:04:15.003Z,21.43
2019-03-20T04:06:46.536Z,22.37
2019-03-20T04:09:18.013Z,19.77
2019-03-20T04:11:49.474Z,19.07
2019-03-20T04:14:20.876Z,19.07
2019-03-20T04:16:52.467Z,18.93
2019-03-20T04:19:29.024Z,19.80
2019-03-20T04:22:00.689Z,18.30
2019-03-20T04:24:32.177Z,21.40
2019-03-20T04:27:03.771Z,21.50
2019-03-20T04:29:35.299Z,21.67
2019-03-20T04:32:06.766Z,19.83
2019-03-20T04:34:38.179Z,17.33
2019-03-20T04:37:12.837Z,19.70
2019-03-20T04:39:45.352Z,16.97
2019-03-20T04:42:16.783Z,17.97
2019-03-20T04:44:49.212Z,19.57
2019-03-20T04:47:20.634Z,19.17
2019-03-20T04:49:52.166Z,18.83
2019-03-20T04:52:23.631Z,16.30
2019-03-20T04:54:55.163Z,16.03
2019-03-20T04:57:26.586Z,16.10
2019-03-20T04:59:58.052Z,16.00
2019-03-20T05:02:29.536Z,15.97
2019-03-20T05:05:00.961Z,13.77
2019-03-20T05:07:32.527Z,16.40
2019-03-20T05:10:04.066Z,17.03
2019-03-20T05:12:40.172Z,16.87
2019-03-20T05:15:13.306Z,17.33
2019-03-20T05:17:44.820Z,17.10
2019-03-20T05:20:16.277Z,17.73
2019-03-20T05:22:49.217Z,18.33
2019-03-20T05:25:20.664Z,19.00
2019-03-20T05:27:52.145Z,17.97
2019-03-20T05:30:23.628Z,17.03
2019-03-20T05:32:55.082Z,18.67
2019-03-20T05:35:26.493Z,17.47
2019-03-20T05:37:57.987Z,19.17
2019-03-20T05:40:29.395Z,17.93
2019-03-20T05:43:00.860Z,18.87
2019-03-20T05:45:32.453Z,22.60
2019-03-20T05:48:03.894Z,20.80
2019-03-20T05:50:35.786Z,20.93
2019-03-20T05:53:07.302Z,19.20
2019-03-20T05:55:41.578Z,21.77
2019-03-20T05:58:16.094Z,22.50
2019-03-20T06:00:50.261Z,22.73
2019-03-20T06:03:23.397Z,24.13
2019-03-20T06:05:54.949Z,23.87
2019-03-20T06:08:27.720Z,24.70
2019-03-20T06:10:59.137Z,21.90
2019-03-20T06:13:32.335Z,22.43
2019-03-20T06:16:03.759Z,23.23
2019-03-20T06:18:35.245Z,26.10
2019-03-20T06:21:09.462Z,23.03
2019-03-20T06:23:40.946Z,24.03
2019-03-20T06:26:12.447Z,24.17
2019-03-20T06:28:44.016Z,25.83
2019-03-20T06:31:15.578Z,23.60
2019-03-20T06:33:46.984Z,23.90
2019-03-20T06:36:18.462Z,26.87
2019-03-20T06:38:49.899Z,23.60
2019-03-20T06:41:21.326Z,26.57
2019-03-20T06:43:52.743Z,25.97
2019-03-20T06:46:26.054Z,25.77
2019-03-20T06:48:57.443Z,24.67
2019-03-20T06:51:28.953Z,23.67
2019-03-20T06:54:00.372Z,20.77
2019-03-20T06:56:31.870Z,23.33
2019-03-20T06:59:43.031Z,20.80
2019-03-20T07:02:14.287Z,19.57
2019-03-20T07:05:25.827Z,20.37
2019-03-20T07:07:57.124Z,20.57
2019-03-20T07:11:17.893Z,18.27
2019-03-20T07:13:50.660Z,17.90
2019-03-20T07:16:22.298Z,18.50
2019-03-20T07:18:53.727Z,18.33
2019-03-20T07:21:25.413Z,17.03
2019-03-20T07:23:57.047Z,15.93
2019-03-20T07:26:28.787Z,16.17
2019-03-20T07:29:00.327Z,17.27
2019-03-20T07:31:32.817Z,17.60
2019-03-20T07:34:04.464Z,17.63
2019-03-20T07:36:35.928Z,15.17
2019-03-20T07:39:09.441Z,16.23
2019-03-20T07:41:40.890Z,15.60
2019-03-20T07:44:12.339Z,15.00
2019-03-20T07:46:43.803Z,15.30
2019-03-20T07:49:15.272Z,16.33
2019-03-20T07:51:49.039Z,13.97
2019-03-20T07:54:20.473Z,12.10
2019-03-20T07:56:51.998Z,13.23
2019-03-20T07:59:24.162Z,14.93
2019-03-20T08:01:55.753Z,12.30
2019-03-20T08:04:27.233Z,9.53
2019-03-20T08:06:59.733Z,11.17
2019-03-20T08:09:31.285Z,10.37
2019-03-20T08:12:03.046Z,10.20
2019-03-20T08:14:34.576Z,11.03
2019-03-20T08:17:06.080Z,10.37
2019-03-20T08:19:37.615Z,11.83
2019-03-20T08:22:09.293Z,10.70
2019-03-20T08:24:40.708Z,9.87
2019-03-20T08:27:12.111Z,8.67
2019-03-20T08:29:43.790Z,8.13
2019-03-20T08:32:15.384Z,8.80
2019-03-20T08:34:49.331Z,8.60
2019-03-20T08:37:20.810Z,7.03
2019-03-20T08:39:52.297Z,7.87
2019-03-20T08:42:23.914Z,8.30
2019-03-20T08:44:55.597Z,7.43
2019-03-20T08:47:27.098Z,8.83
2019-03-20T08:49:58.517Z,10.80
2019-03-20T08:52:32.251Z,8.67
2019-03-20T08:55:03.709Z,8.60
2019-03-20T08:57:35.218Z,8.70
2019-03-20T09:00:10.143Z,7.93
2019-03-20T09:02:41.760Z,7.43
2019-03-20T09:05:13.556Z,7.87
2019-03-20T09:07:47.516Z,6.67
2019-03-20T09:10:19.551Z,6.30
2019-03-20T09:12:51.038Z,6.00
2019-03-20T09:15:22.593Z,4.77
2019-03-20T09:17:54.242Z,5.13
2019-03-20T09:20:26.090Z,4.63
2019-03-20T09:22:57.599Z,4.00
2019-03-20T09:25:29.054Z,4.50
2019-03-20T09:28:00.542Z,3.63
2019-03-20T09:30:33.662Z,4.10
2019-03-20T09:33:05.257Z,4.40
2019-03-20T09:35:37.071Z,4.10
2019-03-20T09:38:08.495Z,5.80
2019-03-20T09:40:39.956Z,3.53
2019-03-20T09:43:11.335Z,3.60
2019-03-20T09:45:47.180Z,2.70
2019-03-20T09:48:24.688Z,3.20
2019-03-20T09:50:56.118Z,2.80
2019-03-20T09:53:27.569Z,2.83
2019-03-20T09:55:59.020Z,3.00
2019-03-20T09:58:30.503Z,3.43
2019-03-20T10:01:02.031Z,2.73
2019-03-20T10:03:33.476Z,2.77
2019-03-20T10:06:05.029Z,2.90
2019-03-20T10:08:36.455Z,2.83
2019-03-20T10:11:07.917Z,3.00
2019-03-20T10:13:39.410Z,2.97
2019-03-20T10:16:11.963Z,2.70
2019-03-20T10:18:43.369Z,2.37
2019-03-20T10:21:14.815Z,2.20
2019-03-20T10:23:46.223Z,2.47
2019-03-20T10:26:20.949Z,2.77
2019-03-20T10:28:52.442Z,2.13
2019-03-20T10:31:23.928Z,2.07
2019-03-20T10:33:55.450Z,1.90
2019-03-20T10:36:28.773Z,1.80
2019-03-20T10:39:06.340Z,1.87
2019-03-20T10:41:33.364Z,1.70
2019-03-20T10:44:04.752Z,1.70
2019-03-20T10:46:37.785Z,1.90
2019-03-20T10:49:10.722Z,1.47
2019-03-20T10:51:44.703Z,1.80
2019-03-20T10:54:23.257Z,1.70
2019-03-20T10:56:54.631Z,1.90
2019-03-20T10:59:26.124Z,1.70
2019-03-20T11:01:57.559Z,2.17
2019-03-20T11:04:29.071Z,1.60
2019-03-20T11:07:00.505Z,2.40
2019-03-20T11:09:33.453Z,1.70
2019-03-20T11:12:04.945Z,1.63
2019-03-20T11:14:36.575Z,1.80
2019-03-20T11:17:08.150Z,2.30
2019-03-20T11:19:39.619Z,1.93
2019-03-20T11:22:18.564Z,2.00
2019-03-20T11:24:44.179Z,1.70
2019-03-20T11:27:15.887Z,1.70
2019-03-20T11:29:47.434Z,2.03
2019-03-20T11:32:18.890Z,2.50
2019-03-20T11:34:50.359Z,2.43
2019-03-20T11:37:22.855Z,2.47
2019-03-20T11:39:59.829Z,1.97
2019-03-20T11:42:31.224Z,2.30
2019-03-20T11:45:02.624Z,2.87
2019-03-20T11:47:34.558Z,3.27
2019-03-20T11:50:09.896Z,2.60
2019-03-20T11:52:41.411Z,3.60
2019-03-20T11:55:12.998Z,3.70
2019-03-20T11:57:49.504Z,2.57
2019-03-20T12:00:20.834Z,2.00
2019-03-20T12:02:52.334Z,1.80
2019-03-20T12:05:23.817Z,2.57
2019-03-20T12:07:55.263Z,1.97
2019-03-20T12:10:29.207Z,2.30
2019-03-20T12:12:59.863Z,1.77
2019-03-20T12:15:33.009Z,3.27
2019-03-20T12:18:04.694Z,2.13
2019-03-20T12:20:36.227Z,4.00
2019-03-20T12:23:07.858Z,2.57
2019-03-20T12:25:41.487Z,2.77
2019-03-20T12:28:15.411Z,2.70
2019-03-20T12:30:46.907Z,2.77
2019-03-20T12:33:18.367Z,3.03
2019-03-20T12:35:49.775Z,3.17
2019-03-20T12:38:21.312Z,2.73
2019-03-20T12:40:52.905Z,5.43
2019-03-20T12:43:24.388Z,3.30
2019-03-20T12:45:55.945Z,2.63
2019-03-20T12:48:34.333Z,2.60
2019-03-20T12:51:10.189Z,2.83
2019-03-20T12:53:41.896Z,3.17
2019-03-20T12:56:19.235Z,3.00
2019-03-20T12:58:49.895Z,3.50
2019-03-20T13:01:22.221Z,2.40
2019-03-20T13:03:53.737Z,2.13
2019-03-20T13:06:25.293Z,5.43
2019-03-20T13:08:56.773Z,5.30
2019-03-20T13:11:28.318Z,2.73
2019-03-20T13:14:00.027Z,3.00
2019-03-20T13:16:34.045Z,2.10
2019-03-20T13:19:05.858Z,1.67
2019-03-20T13:21:39.249Z,1.57
2019-03-20T13:24:10.833Z,1.80
2019-03-20T13:26:45.204Z,2.00
2019-03-20T13:29:16.737Z,2.43
2019-03-20T13:31:48.177Z,2.10
2019-03-20T13:34:27.065Z,1.90
2019-03-20T13:37:00.161Z,1.73
2019-03-20T13:39:33.127Z,1.67
2019-03-20T13:42:06.240Z,1.50
2019-03-20T13:44:37.687Z,1.90
2019-03-20T13:47:09.199Z,1.73
2019-03-20T13:49:42.221Z,1.60
2019-03-20T13:52:13.655Z,2.07
2019-03-20T13:54:45.164Z,2.30
2019-03-20T13:57:16.798Z,1.57
2019-03-20T13:59:48.225Z,1.93
2019-03-20T14:02:19.761Z,1.90
2019-03-20T14:04:51.241Z,2.00
2019-03-20T14:07:24.190Z,2.30
2019-03-20T14:09:55.683Z,2.00
2019-03-20T14:12:27.086Z,2.00
2019-03-20T14:15:02.063Z,2.33
2019-03-20T14:17:36.190Z,2.50
2019-03-20T14:20:09.988Z,2.47
2019-03-20T14:22:45.590Z,2.03
2019-03-20T14:25:23.194Z,2.77
2019-03-20T14:27:54.724Z,2.23
2019-03-20T14:30:26.783Z,2.63
2019-03-20T14:32:58.397Z,1.97
2019-03-20T14:35:30.038Z,2.20
2019-03-20T14:38:05.309Z,2.77
2019-03-20T14:40:37.011Z,2.37
2019-03-20T14:43:08.707Z,2.50
2019-03-20T14:45:40.113Z,2.17
2019-03-20T14:48:11.622Z,2.53
2019-03-20T14:50:43.041Z,2.23
2019-03-20T14:53:14.414Z,2.40
2019-03-20T14:55:45.980Z,2.10
2019-03-20T14:58:17.582Z,2.80
2019-03-20T15:00:49.036Z,2.50
2019-03-20T15:03:20.550Z,2.10
2019-03-20T15:05:51.978Z,2.93
2019-03-20T15:08:23.484Z,2.30
2019-03-20T15:10:55.992Z,2.30
2019-03-20T15:13:27.506Z,2.20
2019-03-20T15:16:05.786Z,2.77
2019-03-20T15:18:37.260Z,2.30
2019-03-20T15:21:08.928Z,2.20
2019-03-20T15:23:40.557Z,2.40
2019-03-20T15:26:14.998Z,2.30
2019-03-20T15:28:46.526Z,2.90
2019-03-20T15:31:17.982Z,2.70
2019-03-20T15:33:49.455Z,2.10
2019-03-20T15:36:22.221Z,2.67
2019-03-20T15:38:53.793Z,2.63
2019-03-20T15:41:25.126Z,2.20
2019-03-20T15:44:02.748Z,2.43
2019-03-20T15:46:33.466Z,1.63
2019-03-20T15:49:04.870Z,2.10
2019-03-20T15:51:36.305Z,2.57
2019-03-20T15:54:09.354Z,2.67
2019-03-20T15:56:41.919Z,2.70
2019-03-20T15:59:13.325Z,2.20
2019-03-20T16:01:45.082Z,2.93
2019-03-20T16:04:16.647Z,3.30
2019-03-20T16:06:48.083Z,2.10
2019-03-20T16:09:19.552Z,2.63
2019-03-20T16:11:50.996Z,2.53
2019-03-20T16:14:22.399Z,2.97
2019-03-20T16:16:56.690Z,3.27
2019-03-20T16:19:28.195Z,3.20
2019-03-20T16:21:59.644Z,3.13
2019-03-20T16:24:31.065Z,5.17
2019-03-20T16:27:02.567Z,6.20
2019-03-20T16:29:44.861Z,6.60
2019-03-20T16:32:17.906Z,6.13
2019-03-20T16:34:49.323Z,6.37
2019-03-20T16:37:21.261Z,5.33
2019-03-20T16:39:53.072Z,5.43
2019-03-20T16:42:24.685Z,5.73
2019-03-20T16:44:56.212Z,6.40
2019-03-20T16:47:27.974Z,6.03
2019-03-20T16:49:59.575Z,5.60
2019-03-20T16:52:31.451Z,5.70
2019-03-20T16:55:03.633Z,4.97
2019-03-20T16:57:35.203Z,4.53
2019-03-20T17:00:10.860Z,5.60
2019-03-20T17:02:45.380Z,6.00
2019-03-20T17:05:17.357Z,6.17
2019-03-20T17:07:49.125Z,6.17
2019-03-20T17:10:25.741Z,6.83
2019-03-20T17:13:02.094Z,6.97
2019-03-20T17:15:36.475Z,7.03
2019-03-20T17:18:08.390Z,8.77
2019-03-20T17:20:40.024Z,7.93
2019-03-20T17:23:11.552Z,7.97
2019-03-20T17:25:43.048Z,8.00
2019-03-20T17:28:14.638Z,8.23
2019-03-20T17:30:47.778Z,9.07
2019-03-20T17:33:19.271Z,8.27
2019-03-20T17:35:50.725Z,9.90
2019-03-20T17:38:22.388Z,10.43
2019-03-20T17:40:53.947Z,10.93
2019-03-20T17:43:25.498Z,9.83
2019-03-20T17:45:57.034Z,9.70
2019-03-20T17:48:28.584Z,10.90
2019-03-20T17:51:00.073Z,11.77
2019-03-20T17:53:31.514Z,12.60
2019-03-20T17:56:06.460Z,11.80
2019-03-20T17:58:37.990Z,10.57
2019-03-20T18:01:09.427Z,11.93
2019-03-20T18:03:40.892Z,12.83
2019-03-20T18:06:12.390Z,13.40
2019-03-20T18:08:46.375Z,13.30
2019-03-20T18:11:17.840Z,13.90
2019-03-20T18:13:54.356Z,13.70
2019-03-20T18:16:25.762Z,14.13
2019-03-20T18:18:57.281Z,15.90
2019-03-20T18:21:28.744Z,17.47
2019-03-20T18:24:00.279Z,16.87
2019-03-20T18:26:35.246Z,17.10
2019-03-20T18:29:06.926Z,17.67
2019-03-20T18:31:45.655Z,17.13
2019-03-20T18:34:11.463Z,15.50
2019-03-20T18:36:43.037Z,15.57
2019-03-20T18:39:14.525Z,14.73
2019-03-20T18:41:46.175Z,15.17
2019-03-20T18:44:19.472Z,16.13
2019-03-20T18:46:50.678Z,14.43
2019-03-20T18:49:22.570Z,12.80
2019-03-20T18:51:54.182Z,14.33
2019-03-20T18:54:25.586Z,13.83
2019-03-20T18:56:59.376Z,15.40
2019-03-20T18:59:30.872Z,14.97
2019-03-20T19:02:06.025Z,15.20
2019-03-20T19:04:37.554Z,15.90
2019-03-20T19:07:09.017Z,15.70
2019-03-20T19:09:40.526Z,16.83
2019-03-20T19:12:11.970Z,18.37
2019-03-20T19:14:43.427Z,20.53
2019-03-20T19:17:14.929Z,18.70
2019-03-20T19:19:46.360Z,19.17
2019-03-20T19:22:17.854Z,18.83
2019-03-20T19:24:50.814Z,19.13
2019-03-20T19:27:22.282Z,16.37
2019-03-20T19:29:53.717Z,17.10
2019-03-20T19:32:25.221Z,18.47
2019-03-20T19:34:56.750Z,18.03
2019-03-20T19:37:28.158Z,17.30
2019-03-20T19:39:59.632Z,16.50
2019-03-20T19:42:31.115Z,18.73
2019-03-20T19:45:02.547Z,17.83
2019-03-20T19:47:35.955Z,16.50
2019-03-20T19:50:09.072Z,15.60
2019-03-20T19:52:40.619Z,16.97
2019-03-20T19:55:12.875Z,17.87
2019-03-20T19:57:44.435Z,17.00
2019-03-20T20:00:17.547Z,13.33
2019-03-20T20:02:49.169Z,13.17
2019-03-20T20:05:20.891Z,12.27
2019-03-20T20:07:52.975Z,11.10
2019-03-20T20:10:24.603Z,10.87
2019-03-20T20:12:56.133Z,10.57
2019-03-20T20:15:27.687Z,9.57
2019-03-20T20:17:59.196Z,9.40
2019-03-20T20:20:30.675Z,9.70
2019-03-20T20:23:04.212Z,9.90
2019-03-20T20:25:36.826Z,13.47
2019-03-20T20:28:08.335Z,11.87
2019-03-20T20:30:39.855Z,12.53
2019-03-20T20:33:16.492Z,11.60
2019-03-20T20:35:48.015Z,10.70
2019-03-20T20:38:19.445Z,11.00
2019-03-20T20:40:50.910Z,11.53
2019-03-20T20:43:22.518Z,10.63
2019-03-20T20:45:57.057Z,11.43
2019-03-20T20:48:28.688Z,11.27
2019-03-20T20:51:00.248Z,11.80
2019-03-20T20:53:31.694Z,11.43
2019-03-20T20:56:03.321Z,11.37
2019-03-20T20:58:35.071Z,11.20
2019-03-20T21:01:09.416Z,12.50
2019-03-20T21:03:40.939Z,11.77
2019-03-20T21:06:13.519Z,12.57
2019-03-20T21:08:46.059Z,11.73
2019-03-20T21:11:17.573Z,12.50
2019-03-20T21:13:49.153Z,11.23
2019-03-20T21:16:21.099Z,10.83
2019-03-20T21:19:31.601Z,10.97
2019-03-20T21:22:45.187Z,11.37
2019-03-20T21:25:18.881Z,9.53
2019-03-20T21:28:27.562Z,10.00
2019-03-20T21:31:31.371Z,11.07
2019-03-20T21:34:56.094Z,9.70
2019-03-20T21:38:08.421Z,10.70
2019-03-20T21:41:35.795Z,11.10
2019-03-20T21:44:56.251Z,11.13
2019-03-20T21:47:36.027Z,12.90
2019-03-20T21:50:41.331Z,13.27
2019-03-20T21:53:16.023Z,12.70
2019-03-20T21:56:21.279Z,13.40
2019-03-20T21:59:26.422Z,14.07
2019-03-20T22:02:38.778Z,11.53
2019-03-20T22:05:23.130Z,11.30
2019-03-20T22:07:51.744Z,11.07
2019-03-20T22:11:22.343Z,11.53
2019-03-20T22:13:59.105Z,11.17
2019-03-20T22:17:22.650Z,10.27
2019-03-20T22:20:28.278Z,10.97
2019-03-20T22:23:45.764Z,9.63
2019-03-20T22:27:01.456Z,10.27
2019-03-20T22:29:33.457Z,11.20
2019-03-20T22:32:51.792Z,9.30
2019-03-20T22:36:15.366Z,8.63
2019-03-20T22:39:46.264Z,8.27
2019-03-20T22:42:31.801Z,8.40
2019-03-20T22:45:38.367Z,8.07
2019-03-20T22:48:47.910Z,10.83
2019-03-20T22:51:40.845Z,8.60
2019-03-20T22:54:51.276Z,8.20
2019-03-20T22:57:52.496Z,8.33
2019-03-20T23:03:16.351Z,7.60
2019-03-20T23:05:48.304Z,7.83
2019-03-20T23:08:20.345Z,7.33
2019-03-20T23:10:52.518Z,7.67
2019-03-20T23:13:24.554Z,6.80
2019-03-20T23:15:56.621Z,6.73
2019-03-20T23:18:28.691Z,8.03
2019-03-20T23:21:02.315Z,7.37
2019-03-20T23:23:35.589Z,7.67
2019-03-20T23:26:07.675Z,7.07
2019-03-20T23:28:39.951Z,6.90
2019-03-20T23:31:11.993Z,7.80
2019-03-20T23:33:44.198Z,6.20
2019-03-20T23:36:16.267Z,6.90
2019-03-20T23:38:54.375Z,7.03
2019-03-20T23:41:26.420Z,7.13
2019-03-20T23:43:58.580Z,7.47
2019-03-20T23:46:31.039Z,7.53
2019-03-20T23:49:12.725Z,7.37
2019-03-20T23:51:45.800Z,7.27
2019-03-20T23:54:20.776Z,7.63
2019-03-20T23:56:55.527Z,7.03
2019-03-20T23:59:27.596Z,6.67
